Time;durP1;ratioP1;P1;durP2;ratioP2;P2;SDS_P1;SDS_P2;PMS_P1;PMS_P2;Temp;Humidity;BMP_temperature;BMP_pressure;BME280_temperature;BME280_humidity;BME280_pressure;Samples;Min_cycle;Max_cycle;Signal;HPM_P1;HPM_P2
2021/01/22 00:02:14;;;;;;;20.83;11.93;;;9.50;99.90;;;;;;5013049;28;20270;-94
2021/01/22 00:04:41;;;;;;;20.60;10.60;;;9.50;99.90;;;;;;5014328;28;20211;-92
2021/01/22 00:07:07;;;;;;;21.90;11.03;;;9.60;99.90;;;;;;5014971;28;20208;-94
2021/01/22 00:09:34;;;;;;;17.27;10.07;;;9.60;99.90;;;;;;5015117;28;20211;-93
2021/01/22 00:12:00;;;;;;;16.70;9.97;;;9.80;99.90;;;;;;5013300;28;20212;-93
2021/01/22 00:14:27;;;;;;;13.20;10.37;;;9.90;99.90;;;;;;5015594;28;20208;-78
2021/01/22 00:16:54;;;;;;;18.67;10.13;;;9.90;99.90;;;;;;5017495;28;20231;-92
2021/01/22 00:19:20;;;;;;;17.27;10.93;;;9.90;99.90;;;;;;5020148;28;20591;-91
2021/01/22 00:21:47;;;;;;;17.10;10.03;;;9.80;99.90;;;;;;5011034;28;20216;-87
2021/01/22 00:24:13;;;;;;;21.50;10.67;;;9.90;99.90;;;;;;5011849;28;20250;-94
2021/01/22 00:26:40;;;;;;;23.03;10.43;;;9.80;99.90;;;;;;5011241;28;20258;-84
2021/01/22 00:29:06;;;;;;;19.33;10.80;;;9.70;99.90;;;;;;5011364;28;20216;-85
2021/01/22 00:31:33;;;;;;;20.77;11.00;;;9.50;99.90;;;;;;5010746;28;20624;-84
2021/01/22 00:34:00;;;;;;;20.27;11.43;;;9.40;99.90;;;;;;5011462;28;20212;-88
2021/01/22 00:36:27;;;;;;;19.77;11.60;;;9.30;99.90;;;;;;5011488;28;20278;-82
2021/01/22 00:38:53;;;;;;;26.67;10.53;;;9.60;99.90;;;;;;5013748;28;20574;-89
2021/01/22 00:41:20;;;;;;;16.57;9.63;;;9.70;99.90;;;;;;5015146;28;20628;-92
2021/01/22 00:43:46;;;;;;;22.47;10.93;;;9.70;99.90;;;;;;5017873;28;20553;-89
2021/01/22 00:46:13;;;;;;;20.03;9.97;;;9.60;99.90;;;;;;5015701;28;20208;-90
2021/01/22 00:48:39;;;;;;;14.70;9.73;;;9.30;99.90;;;;;;5015467;28;20626;-88
2021/01/22 00:51:07;;;;;;;13.90;9.37;;;9.50;99.90;;;;;;5015026;28;20578;-89
2021/01/22 00:53:33;;;;;;;14.17;9.43;;;9.40;99.90;;;;;;5014692;28;20204;-89
2021/01/22 00:55:59;;;;;;;14.70;10.77;;;9.40;99.90;;;;;;5014992;28;20715;-90
2021/01/22 00:58:26;;;;;;;18.23;12.00;;;9.50;99.90;;;;;;5015167;28;20208;-92
2021/01/22 01:00:52;;;;;;;15.70;11.20;;;9.50;99.90;;;;;;5028960;28;20223;-89
2021/01/22 01:03:19;;;;;;;15.93;11.60;;;9.40;99.90;;;;;;5032665;28;20235;-92
2021/01/22 01:05:45;;;;;;;16.23;10.33;;;9.50;99.90;;;;;;5025019;28;20211;-91
2021/01/22 01:08:13;;;;;;;19.23;11.17;;;9.50;99.90;;;;;;5016343;28;20216;-91
2021/01/22 01:10:39;;;;;;;21.97;12.20;;;9.60;99.90;;;;;;5016152;28;20599;-93
2021/01/22 01:13:06;;;;;;;21.90;10.97;;;9.50;99.90;;;;;;5016924;28;20204;-89
2021/01/22 01:15:32;;;;;;;16.80;10.87;;;9.60;99.90;;;;;;5014801;28;20232;-92
2021/01/22 01:17:59;;;;;;;19.97;10.53;;;9.60;99.90;;;;;;5014635;28;20233;-90
2021/01/22 01:20:25;;;;;;;18.77;11.07;;;9.50;99.90;;;;;;5014434;28;20208;-91
2021/01/22 01:22:52;;;;;;;14.93;10.70;;;9.50;99.90;;;;;;5014663;28;20229;-93
2021/01/22 01:25:19;;;;;;;14.83;10.30;;;9.40;99.90;;;;;;5014375;28;20214;-86
2021/01/22 01:27:46;;;;;;;15.73;9.63;;;9.40;99.90;;;;;;5013705;28;20212;-88
2021/01/22 01:30:13;;;;;;;17.20;11.83;;;9.30;99.90;;;;;;5013844;28;20204;-87
2021/01/22 01:32:39;;;;;;;18.93;10.33;;;9.30;99.90;;;;;;5013973;28;20243;-88
2021/01/22 01:35:07;;;;;;;14.03;10.10;;;9.20;99.90;;;;;;5013769;28;20215;-89
2021/01/22 01:37:33;;;;;;;18.53;10.63;;;9.10;99.90;;;;;;5013511;28;20216;-89
2021/01/22 01:40:00;;;;;;;18.13;10.80;;;9.30;99.90;;;;;;5013834;28;20227;-86
2021/01/22 01:42:27;;;;;;;22.07;11.97;;;9.20;99.90;;;;;;5014195;28;20215;-88
2021/01/22 01:44:54;;;;;;;19.87;11.07;;;9.30;99.90;;;;;;5014290;28;20211;-88
2021/01/22 01:47:20;;;;;;;16.23;11.60;;;9.30;99.90;;;;;;5014120;28;20219;-89
2021/01/22 01:49:47;;;;;;;18.10;12.60;;;9.30;99.90;;;;;;5012354;28;20208;-84
2021/01/22 01:52:13;;;;;;;19.00;11.37;;;9.30;99.90;;;;;;5025951;28;20204;-84
2021/01/22 01:54:41;;;;;;;17.83;10.93;;;9.30;99.90;;;;;;5014137;28;20212;-84
2021/01/22 01:57:07;;;;;;;17.33;11.27;;;9.30;99.90;;;;;;5012862;28;20232;-85
2021/01/22 01:59:35;;;;;;;17.30;12.00;;;9.30;99.90;;;;;;5012886;28;20209;-82
2021/01/22 02:02:02;;;;;;;20.73;12.20;;;9.30;99.90;;;;;;5012913;28;20212;-84
2021/01/22 02:04:29;;;;;;;24.63;11.53;;;9.30;99.90;;;;;;5012772;28;20208;-77
2021/01/22 02:06:55;;;;;;;19.43;11.70;;;9.20;99.90;;;;;;5020769;28;20208;-84
2021/01/22 02:09:22;;;;;;;15.57;11.87;;;9.20;99.90;;;;;;5019386;28;20213;-84
2021/01/22 02:11:49;;;;;;;20.67;12.03;;;9.20;99.90;;;;;;5012777;28;20278;-83
2021/01/22 02:14:16;;;;;;;21.60;13.40;;;9.20;99.90;;;;;;5014114;28;20215;-94
2021/01/22 02:16:44;;;;;;;16.27;11.23;;;9.20;99.90;;;;;;5013021;28;20251;-92
2021/01/22 02:19:10;;;;;;;20.90;12.47;;;9.20;99.90;;;;;;5013423;28;20572;-85
2021/01/22 02:21:39;;;;;;;21.13;13.20;;;9.20;99.90;;;;;;5012337;28;20204;-82
2021/01/22 02:24:09;;;;;;;18.87;10.70;;;9.30;99.90;;;;;;5012652;28;20208;-80
2021/01/22 02:26:46;;;;;;;18.17;12.60;;;9.30;99.90;;;;;;5012250;28;20212;-85
2021/01/22 02:29:15;;;;;;;27.67;12.23;;;9.30;99.90;;;;;;5013122;28;20200;-89
2021/01/22 02:31:45;;;;;;;25.33;13.60;;;9.30;99.90;;;;;;5012490;28;20204;-88
2021/01/22 02:34:15;;;;;;;18.60;10.67;;;9.30;99.90;;;;;;5012833;28;20208;-88
2021/01/22 02:36:44;;;;;;;18.30;10.93;;;9.30;99.90;;;;;;5012572;28;20286;-88
2021/01/22 02:39:12;;;;;;;17.97;10.53;;;9.30;99.90;;;;;;5015631;28;20219;-89
2021/01/22 02:41:42;;;;;;;19.10;10.53;;;9.30;99.90;;;;;;5032572;28;20226;-90
2021/01/22 02:44:09;;;;;;;16.50;9.30;;;9.30;99.90;;;;;;5016671;28;20216;-92
2021/01/22 02:46:36;;;;;;;22.30;11.43;;;9.40;99.90;;;;;;5012672;28;20204;-90
2021/01/22 02:49:04;;;;;;;15.27;11.33;;;9.40;99.90;;;;;;5012790;28;20235;-87
2021/01/22 02:51:30;;;;;;;17.60;11.93;;;9.40;99.90;;;;;;5012459;28;20749;-89
2021/01/22 02:53:57;;;;;;;17.27;10.60;;;9.50;99.90;;;;;;5012246;28;20215;-79
2021/01/22 02:56:37;;;;;;;15.63;11.07;;;9.50;99.90;;;;;;5012247;28;20231;-86
2021/01/22 02:59:12;;;;;;;15.03;9.63;;;9.40;99.90;;;;;;5012347;28;20212;-85
2021/01/22 03:01:48;;;;;;;18.13;11.27;;;9.50;99.90;;;;;;5011054;28;20212;-85
2021/01/22 03:04:16;;;;;;;17.70;10.50;;;9.40;99.90;;;;;;5010976;28;20207;-85
2021/01/22 03:06:46;;;;;;;16.97;9.93;;;9.40;99.90;;;;;;5011640;28;20254;-85
2021/01/22 03:09:19;;;;;;;13.37;10.20;;;9.40;99.90;;;;;;5011927;28;20208;-84
2021/01/22 03:11:48;;;;;;;20.70;11.17;;;9.40;99.90;;;;;;5011330;28;20204;-84
2021/01/22 03:14:17;;;;;;;19.93;10.67;;;9.40;99.90;;;;;;5011651;28;20215;-83
2021/01/22 03:16:44;;;;;;;24.40;10.60;;;9.50;99.90;;;;;;5011121;28;20661;-83
2021/01/22 03:19:10;;;;;;;14.33;9.97;;;9.50;99.90;;;;;;5011945;28;20287;-82
2021/01/22 03:21:37;;;;;;;18.03;10.30;;;9.50;99.90;;;;;;5011178;28;20207;-83
2021/01/22 03:24:04;;;;;;;13.07;9.60;;;9.50;99.90;;;;;;5011822;28;20211;-84
2021/01/22 03:26:31;;;;;;;17.63;10.53;;;9.50;99.90;;;;;;5011008;28;20253;-84
2021/01/22 03:28:57;;;;;;;18.23;10.90;;;9.50;99.90;;;;;;5011446;28;20583;-81
2021/01/22 03:31:24;;;;;;;12.77;8.40;;;9.50;99.90;;;;;;5011482;28;20231;-83
2021/01/22 03:33:51;;;;;;;17.23;10.80;;;9.60;99.90;;;;;;5010972;28;20208;-83
2021/01/22 03:36:19;;;;;;;17.90;11.33;;;9.60;99.90;;;;;;5011328;28;20238;-83
2021/01/22 03:38:45;;;;;;;12.97;9.63;;;9.50;99.90;;;;;;4997812;28;20216;-85
2021/01/22 03:41:12;;;;;;;17.50;11.13;;;9.50;99.90;;;;;;5011748;28;20204;-87
2021/01/22 03:43:38;;;;;;;15.53;10.63;;;9.50;99.90;;;;;;5011089;28;20204;-83
2021/01/22 03:46:05;;;;;;;18.57;11.07;;;9.40;99.90;;;;;;5012097;28;20242;-90
2021/01/22 03:48:32;;;;;;;18.10;10.57;;;9.30;99.90;;;;;;5011564;28;20212;-92
2021/01/22 03:50:59;;;;;;;14.37;10.53;;;9.30;99.90;;;;;;5012319;28;20208;-93
2021/01/22 03:53:25;;;;;;;16.67;11.30;;;9.30;99.90;;;;;;5012414;28;20222;-92
2021/01/22 03:55:52;;;;;;;19.63;11.47;;;9.30;99.90;;;;;;5031523;28;20702;-92
2021/01/22 03:58:18;;;;;;;22.43;11.80;;;9.20;99.90;;;;;;5019670;28;20208;-91
2021/01/22 04:00:45;;;;;;;15.73;11.10;;;9.20;99.90;;;;;;5011514;28;20212;-92
2021/01/22 04:03:11;;;;;;;17.57;11.10;;;9.30;99.90;;;;;;5012073;28;20205;-91
2021/01/22 04:05:38;;;;;;;19.57;11.40;;;9.30;99.90;;;;;;5011380;28;20223;-91
2021/01/22 04:08:05;;;;;;;16.57;10.93;;;9.30;99.90;;;;;;5011893;28;20216;-89
2021/01/22 04:10:32;;;;;;;17.30;12.73;;;9.30;99.90;;;;;;5011843;28;20204;-89
2021/01/22 04:12:58;;;;;;;17.20;10.37;;;9.20;99.90;;;;;;5013508;28;20212;-92
2021/01/22 04:15:25;;;;;;;17.03;11.57;;;9.10;99.90;;;;;;5015904;28;20212;-93
2021/01/22 04:17:51;;;;;;;17.00;10.23;;;9.10;99.90;;;;;;5015065;28;20208;-92
2021/01/22 04:20:21;;;;;;;16.67;13.97;;;9.10;99.90;;;;;;5015783;28;20356;-92
2021/01/22 04:22:52;;;;;;;18.53;10.67;;;9.10;99.90;;;;;;5015318;28;20208;-93
2021/01/22 04:25:19;;;;;;;14.67;10.23;;;9.10;99.90;;;;;;5015518;28;20212;-81
2021/01/22 04:27:46;;;;;;;16.87;11.33;;;9.10;99.90;;;;;;5012623;28;20309;-91
2021/01/22 04:30:13;;;;;;;20.57;11.10;;;9.20;99.90;;;;;;5015268;28;20258;-91
2021/01/22 04:32:41;;;;;;;21.93;13.20;;;9.20;99.90;;;;;;5014745;28;20212;-85
2021/01/22 04:35:12;;;;;;;20.33;12.20;;;9.10;99.90;;;;;;5015150;28;20204;-84
2021/01/22 04:37:40;;;;;;;19.87;13.03;;;9.20;99.90;;;;;;5014366;28;20327;-83
2021/01/22 04:40:09;;;;;;;25.13;12.20;;;9.20;99.90;;;;;;5014823;28;20267;-83
2021/01/22 04:42:38;;;;;;;21.90;13.73;;;9.20;99.90;;;;;;5014081;28;20208;-80
2021/01/22 04:45:06;;;;;;;27.63;12.33;;;9.20;99.90;;;;;;5014422;28;20698;-83
2021/01/22 04:47:33;;;;;;;16.50;11.37;;;9.20;99.90;;;;;;5014263;28;20212;-83
2021/01/22 04:50:01;;;;;;;21.93;12.37;;;9.20;99.90;;;;;;5014299;28;20212;-78
2021/01/22 04:52:31;;;;;;;18.37;11.17;;;9.20;99.90;;;;;;5014550;28;20215;-83
2021/01/22 04:54:59;;;;;;;14.87;9.77;;;9.20;99.90;;;;;;5013960;28;20699;-76
2021/01/22 04:57:29;;;;;;;11.97;8.40;;;9.10;99.90;;;;;;5014411;28;20228;-85
2021/01/22 04:59:57;;;;;;;20.83;12.43;;;9.10;99.90;;;;;;5014228;28;20216;-83
2021/01/22 05:02:23;;;;;;;16.87;10.30;;;9.00;99.90;;;;;;5014469;28;20200;-86
2021/01/22 05:04:50;;;;;;;19.50;11.57;;;8.90;99.90;;;;;;5013589;28;20726;-85
2021/01/22 05:07:20;;;;;;;16.53;11.17;;;9.00;99.90;;;;;;5013371;28;20208;-82
2021/01/22 05:09:47;;;;;;;19.57;12.00;;;9.00;99.90;;;;;;5014020;28;20211;-83
2021/01/22 05:12:13;;;;;;;15.50;8.07;;;9.00;99.90;;;;;;5013631;28;20200;-79
2021/01/22 05:14:41;;;;;;;15.20;10.87;;;8.90;99.90;;;;;;5013849;28;20208;-85
2021/01/22 05:17:09;;;;;;;14.80;9.63;;;8.90;99.90;;;;;;5014541;28;20228;-89
2021/01/22 05:19:37;;;;;;;22.33;12.10;;;8.90;99.90;;;;;;5013769;28;20668;-90
2021/01/22 05:22:05;;;;;;;19.00;11.80;;;8.90;99.90;;;;;;5014391;28;20212;-83
2021/01/22 05:24:34;;;;;;;16.13;12.57;;;8.80;99.90;;;;;;5012864;28;20204;-90
2021/01/22 05:27:05;;;;;;;18.43;9.83;;;8.80;99.90;;;;;;5014166;28;20243;-91
2021/01/22 05:29:33;;;;;;;17.73;11.30;;;8.80;99.90;;;;;;5013991;28;20208;-83
2021/01/22 05:32:01;;;;;;;21.93;11.70;;;8.80;99.90;;;;;;5014721;28;20204;-91
2021/01/22 05:34:47;;;;;;;15.30;10.43;;;8.80;99.90;;;;;;5013967;28;20212;-83
2021/01/22 05:37:13;;;;;;;18.67;11.83;;;8.80;99.90;;;;;;5014243;28;20232;-91
2021/01/22 05:39:40;;;;;;;18.30;11.63;;;8.80;99.90;;;;;;5013614;28;20262;-88
2021/01/22 05:42:07;;;;;;;16.17;11.67;;;8.80;99.90;;;;;;5022027;28;20208;-88
2021/01/22 05:44:34;;;;;;;18.90;11.23;;;8.60;99.90;;;;;;5018796;28;20215;-86
2021/01/22 05:47:11;;;;;;;13.53;10.57;;;8.70;99.90;;;;;;5013600;28;20713;-86
2021/01/22 05:49:58;;;;;;;16.67;10.77;;;8.70;99.90;;;;;;5012902;28;20581;-84
2021/01/22 05:52:25;;;;;;;16.40;11.23;;;8.70;99.90;;;;;;5002905;28;20239;-83
2021/01/22 05:54:52;;;;;;;19.63;11.23;;;8.70;99.90;;;;;;5012588;28;20216;-84
2021/01/22 05:57:19;;;;;;;18.23;10.53;;;8.80;99.90;;;;;;5014104;28;20232;-85
2021/01/22 05:59:46;;;;;;;19.47;10.93;;;8.80;99.90;;;;;;5012467;28;20212;-84
2021/01/22 06:02:31;;;;;;;16.87;9.13;;;8.80;99.90;;;;;;5013574;28;20215;-85
2021/01/22 06:05:14;;;;;;;12.40;10.40;;;8.90;99.90;;;;;;5013336;28;20211;-86
2021/01/22 06:07:41;;;;;;;15.17;10.50;;;8.90;99.90;;;;;;5013191;28;20587;-86
2021/01/22 06:10:13;;;;;;;21.67;11.07;;;8.90;99.90;;;;;;5014144;28;20212;-84
2021/01/22 06:12:43;;;;;;;18.60;9.93;;;8.80;99.90;;;;;;5013271;28;20263;-88
2021/01/22 06:15:12;;;;;;;15.33;10.73;;;8.90;99.90;;;;;;5013430;28;20705;-93
2021/01/22 06:17:45;;;;;;;17.23;10.80;;;8.90;99.90;;;;;;5012851;28;20610;-85
2021/01/22 06:20:19;;;;;;;18.93;10.97;;;8.90;99.90;;;;;;5013531;28;20612;-93
2021/01/22 06:23:04;;;;;;;19.63;10.47;;;8.90;99.90;;;;;;5012949;28;20592;-92
2021/01/22 06:25:31;;;;;;;21.60;10.43;;;8.90;99.90;;;;;;5013600;28;20215;-91
2021/01/22 06:27:59;;;;;;;19.80;8.70;;;8.90;99.90;;;;;;5013374;28;20208;-91
2021/01/22 06:30:27;;;;;;;10.43;7.97;;;8.80;99.90;;;;;;5013542;28;20694;-92
2021/01/22 06:32:56;;;;;;;13.83;7.93;;;8.90;99.90;;;;;;5013375;28;20259;-94
2021/01/22 06:35:24;;;;;;;15.87;8.70;;;8.90;99.90;;;;;;5019105;28;20205;-91
2021/01/22 06:37:52;;;;;;;12.57;9.20;;;8.90;99.90;;;;;;5017263;28;20262;-92
2021/01/22 06:40:20;;;;;;;15.23;9.97;;;8.80;99.90;;;;;;5015947;28;20204;-93
2021/01/22 06:42:47;;;;;;;15.63;8.87;;;8.80;99.90;;;;;;5013805;28;20216;-91
2021/01/22 06:45:14;;;;;;;14.97;9.50;;;8.80;99.90;;;;;;5013018;28;20566;-94
2021/01/22 06:47:41;;;;;;;11.43;7.93;;;8.80;99.90;;;;;;5012565;28;20251;-86
2021/01/22 06:50:21;;;;;;;12.20;9.10;;;8.80;99.90;;;;;;5012597;28;20204;-90
2021/01/22 06:53:07;;;;;;;18.10;10.50;;;8.80;99.90;;;;;;5012127;28;20212;-90
2021/01/22 06:55:34;;;;;;;14.93;9.20;;;8.80;99.90;;;;;;4999449;28;20224;-89
2021/01/22 06:58:23;;;;;;;15.23;12.10;;;8.80;99.90;;;;;;5012456;28;20215;-86
2021/01/22 07:00:52;;;;;;;14.60;10.53;;;8.80;99.90;;;;;;5000485;28;20250;-88
2021/01/22 07:03:46;;;;;;;15.40;9.13;;;8.80;99.90;;;;;;5011984;28;20262;-83
2021/01/22 07:06:48;;;;;;;13.37;9.10;;;8.90;99.90;;;;;;5011718;28;20685;-83
2021/01/22 07:09:15;;;;;;;13.93;9.40;;;8.90;99.90;;;;;;5011638;28;20208;-83
2021/01/22 07:11:58;;;;;;;12.23;9.13;;;9.00;99.90;;;;;;5024527;28;20253;-83
2021/01/22 07:14:48;;;;;;;16.33;9.67;;;9.00;99.90;;;;;;5009817;28;20234;-84
2021/01/22 07:17:20;;;;;;;12.10;9.07;;;9.00;99.90;;;;;;5011243;28;20239;-83
2021/01/22 07:19:55;;;;;;;20.23;11.30;;;9.00;99.90;;;;;;5011028;28;20286;-84
2021/01/22 07:22:22;;;;;;;18.87;10.37;;;9.00;99.90;;;;;;5011507;28;20212;-83
2021/01/22 07:24:51;;;;;;;15.37;9.93;;;9.00;99.90;;;;;;5010890;28;20270;-84
2021/01/22 07:27:17;;;;;;;15.03;9.40;;;9.10;99.90;;;;;;5011852;28;20216;-86
2021/01/22 07:30:08;;;;;;;12.90;9.20;;;9.10;99.90;;;;;;5011453;28;20211;-85
2021/01/22 07:32:35;;;;;;;13.80;8.53;;;9.20;99.90;;;;;;5011826;28;20215;-86
2021/01/22 07:35:02;;;;;;;15.67;10.13;;;9.30;99.90;;;;;;5011852;28;20239;-86
2021/01/22 07:37:36;;;;;;;14.47;9.43;;;9.30;99.90;;;;;;5011395;28;20236;-76
2021/01/22 07:40:07;;;;;;;11.23;9.03;;;9.30;99.90;;;;;;5011206;28;20204;-82
2021/01/22 07:42:34;;;;;;;15.50;10.03;;;9.30;99.90;;;;;;5010760;28;20228;-89
2021/01/22 07:45:07;;;;;;;15.60;10.60;;;9.10;99.90;;;;;;5011628;28;20240;-89
2021/01/22 07:47:34;;;;;;;14.60;10.70;;;9.00;99.90;;;;;;5013256;28;20273;-88
2021/01/22 07:50:03;;;;;;;12.10;8.63;;;8.80;99.90;;;;;;5018008;28;20602;-86
2021/01/22 07:52:31;;;;;;;11.50;7.90;;;8.70;99.90;;;;;;5017767;28;20200;-85
2021/01/22 07:54:57;;;;;;;14.93;8.93;;;8.60;99.90;;;;;;5019324;28;20200;-80
2021/01/22 07:57:25;;;;;;;15.17;7.97;;;8.60;99.90;;;;;;5029322;28;20231;-83
2021/01/22 07:59:53;;;;;;;11.63;8.50;;;8.60;99.90;;;;;;5010990;28;20212;-80
2021/01/22 08:02:20;;;;;;;12.40;7.70;;;8.50;99.90;;;;;;5017442;28;20671;-79
2021/01/22 08:04:55;;;;;;;11.73;7.53;;;8.50;99.90;;;;;;5019590;28;20802;-77
2021/01/22 08:07:32;;;;;;;8.53;6.13;;;8.50;99.90;;;;;;5017717;28;20258;-86
2021/01/22 08:09:58;;;;;;;13.30;7.70;;;8.50;99.90;;;;;;5017414;28;20707;-74
2021/01/22 08:12:25;;;;;;;12.50;7.10;;;8.50;99.90;;;;;;5017228;28;20290;-80
2021/01/22 08:14:51;;;;;;;8.10;7.10;;;8.50;99.90;;;;;;5012530;28;20216;-81
2021/01/22 08:17:19;;;;;;;10.60;7.30;;;8.60;99.90;;;;;;5021108;28;20235;-82
2021/01/22 08:19:46;;;;;;;13.43;7.90;;;8.60;99.90;;;;;;5015880;28;20211;-83
2021/01/22 08:22:16;;;;;;;10.20;8.00;;;8.60;99.90;;;;;;5010057;28;20302;-79
2021/01/22 08:24:50;;;;;;;11.90;8.20;;;8.60;99.90;;;;;;5016497;28;20203;-75
2021/01/22 08:27:20;;;;;;;10.17;7.53;;;8.70;99.90;;;;;;5016900;28;21061;-81
2021/01/22 08:29:48;;;;;;;13.93;7.33;;;8.70;99.90;;;;;;5020774;28;20575;-80
2021/01/22 08:32:18;;;;;;;10.90;7.50;;;8.70;99.90;;;;;;5013337;28;20212;-82
2021/01/22 08:34:45;;;;;;;12.07;7.37;;;8.70;99.90;;;;;;5016492;28;20204;-83
2021/01/22 08:37:11;;;;;;;9.60;7.17;;;8.70;99.90;;;;;;5019947;28;20231;-81
2021/01/22 08:39:54;;;;;;;13.20;7.70;;;8.70;99.90;;;;;;5020873;28;20621;-78
2021/01/22 08:42:21;;;;;;;11.73;7.47;;;8.70;99.90;;;;;;5007247;28;20660;-83
2021/01/22 08:44:56;;;;;;;11.23;8.07;;;8.70;99.90;;;;;;5016955;28;20212;-83
2021/01/22 08:47:23;;;;;;;13.17;7.50;;;8.70;99.90;;;;;;5014522;28;20207;-81
2021/01/22 08:50:08;;;;;;;11.27;7.13;;;8.70;99.90;;;;;;5017849;28;20216;-80
2021/01/22 08:52:34;;;;;;;14.97;8.67;;;8.80;99.90;;;;;;5021743;28;20199;-81
2021/01/22 08:55:01;;;;;;;12.97;9.50;;;8.80;99.90;;;;;;5016684;28;20207;-78
2021/01/22 08:57:29;;;;;;;19.70;13.60;;;8.80;99.90;;;;;;5019685;28;20227;-80
2021/01/22 08:59:57;;;;;;;13.13;8.67;;;8.80;99.90;;;;;;5024611;28;20242;-85
2021/01/22 09:02:41;;;;;;;14.53;7.77;;;8.80;99.90;;;;;;5013342;28;20211;-85
2021/01/22 09:05:10;;;;;;;13.93;8.33;;;8.80;99.90;;;;;;5018060;28;20208;-82
2021/01/22 09:07:37;;;;;;;11.20;8.17;;;8.80;99.90;;;;;;5018011;28;20208;-85
2021/01/22 09:10:06;;;;;;;13.40;8.50;;;8.90;99.90;;;;;;5013728;28;20201;-86
2021/01/22 09:12:34;;;;;;;12.60;7.27;;;8.90;99.90;;;;;;5014122;28;20215;-83
2021/01/22 09:15:02;;;;;;;8.17;4.80;;;9.00;99.90;;;;;;5014538;28;20240;-87
2021/01/22 09:17:36;;;;;;;5.90;4.00;;;9.00;99.90;;;;;;5013563;28;20260;-84
2021/01/22 09:20:07;;;;;;;7.67;4.87;;;9.10;99.90;;;;;;5014117;28;20214;-86
2021/01/22 09:22:34;;;;;;;3.13;2.70;;;9.10;99.90;;;;;;5013243;28;20204;-85
2021/01/22 09:25:02;;;;;;;3.93;2.90;;;9.10;99.90;;;;;;5013928;28;20247;-87
2021/01/22 09:27:30;;;;;;;1.47;1.30;;;9.00;99.90;;;;;;5013692;28;20266;-76
2021/01/22 09:29:56;;;;;;;3.53;1.20;;;9.10;99.90;;;;;;5014006;28;20587;-87
2021/01/22 09:32:23;;;;;;;1.13;0.97;;;9.20;99.90;;;;;;5013904;28;20556;-88
2021/01/22 09:34:49;;;;;;;2.13;1.30;;;9.20;99.90;;;;;;5013873;28;20204;-90
2021/01/22 09:37:16;;;;;;;1.00;0.77;;;9.30;99.90;;;;;;5013961;28;20227;-89
2021/01/22 09:39:42;;;;;;;1.13;0.90;;;9.50;99.90;;;;;;5013526;28;20208;-87
2021/01/22 09:42:09;;;;;;;1.47;1.00;;;9.50;99.90;;;;;;5014028;28;20686;-89
2021/01/22 09:44:36;;;;;;;1.70;0.80;;;9.60;99.90;;;;;;5013206;28;20680;-88
2021/01/22 09:47:03;;;;;;;2.47;0.83;;;9.60;99.90;;;;;;5013934;28;20211;-79
2021/01/22 09:49:29;;;;;;;2.90;0.80;;;9.60;99.90;;;;;;5013444;28;20216;-85
2021/01/22 09:51:56;;;;;;;5.50;0.80;;;9.70;99.90;;;;;;5013883;28;20200;-86
2021/01/22 09:54:22;;;;;;;1.93;1.13;;;9.70;99.90;;;;;;5014038;28;20219;-89
2021/01/22 09:56:49;;;;;;;2.40;1.33;;;9.80;99.90;;;;;;5013082;28;20231;-90
2021/01/22 09:59:15;;;;;;;1.53;0.70;;;9.90;99.90;;;;;;5014504;28;20262;-89
2021/01/22 10:01:43;;;;;;;1.27;0.80;;;9.90;99.90;;;;;;5012997;28;20223;-89
2021/01/22 10:04:09;;;;;;;1.27;0.83;;;10.00;99.90;;;;;;5013555;28;20266;-86
2021/01/22 10:06:35;;;;;;;0.87;0.77;;;10.10;99.90;;;;;;5013332;28;20592;-87
2021/01/22 10:09:02;;;;;;;0.90;0.60;;;9.90;99.90;;;;;;5013753;28;20231;-87
2021/01/22 10:11:29;;;;;;;2.43;0.63;;;9.90;99.90;;;;;;5012986;28;20208;-76
2021/01/22 10:13:56;;;;;;;2.10;0.70;;;9.80;99.90;;;;;;5013771;28;20212;-89
2021/01/22 10:16:24;;;;;;;2.80;1.23;;;9.90;99.90;;;;;;4999754;28;20268;-87
2021/01/22 10:18:52;;;;;;;2.93;1.00;;;10.00;99.90;;;;;;5012707;28;20208;-88
2021/01/22 10:21:20;;;;;;;1.23;1.10;;;9.90;99.90;;;;;;5011982;28;20596;-78
2021/01/22 10:23:48;;;;;;;3.27;1.00;;;10.00;99.90;;;;;;5013616;28;20212;-87
2021/01/22 10:26:15;;;;;;;1.53;0.80;;;10.10;99.90;;;;;;5024504;28;20210;-85
2021/01/22 10:28:41;;;;;;;2.60;1.50;;;10.20;99.90;;;;;;5013112;28;20211;-78
2021/01/22 10:31:08;;;;;;;1.97;1.63;;;10.30;99.90;;;;;;5012676;28;20205;-86
2021/01/22 10:33:35;;;;;;;3.60;1.60;;;10.10;99.90;;;;;;5012163;28;20212;-86
2021/01/22 10:36:03;;;;;;;2.13;0.93;;;10.20;99.90;;;;;;5013036;28;20208;-87
2021/01/22 10:38:29;;;;;;;3.50;1.40;;;10.00;99.90;;;;;;5011111;28;20205;-83
2021/01/22 10:40:56;;;;;;;2.47;0.70;;;10.00;99.90;;;;;;5013349;28;20255;-86
2021/01/22 10:43:23;;;;;;;2.87;1.60;;;10.00;99.90;;;;;;5026333;28;20211;-86
2021/01/22 10:45:50;;;;;;;1.17;0.90;;;10.00;99.90;;;;;;5016105;28;20257;-86
2021/01/22 10:48:17;;;;;;;2.13;0.73;;;10.00;99.90;;;;;;5028008;28;20227;-86
2021/01/22 10:50:43;;;;;;;2.43;1.53;;;9.90;99.90;;;;;;5012278;28;20211;-85
2021/01/22 10:53:11;;;;;;;3.13;0.83;;;9.90;99.90;;;;;;5013448;28;20203;-84
2021/01/22 10:55:37;;;;;;;3.20;0.90;;;10.00;99.90;;;;;;5014121;28;20649;-86
2021/01/22 10:58:03;;;;;;;2.20;1.33;;;10.10;99.90;;;;;;5014816;28;20236;-87
2021/01/22 11:00:30;;;;;;;2.40;1.57;;;10.10;99.90;;;;;;5014337;28;20228;-85
2021/01/22 11:02:56;;;;;;;2.17;0.90;;;10.10;99.90;;;;;;5017137;28;20203;-82
2021/01/22 11:05:23;;;;;;;2.93;1.07;;;10.10;99.90;;;;;;5008642;28;20673;-90
2021/01/22 11:07:49;;;;;;;3.40;1.13;;;10.10;99.90;;;;;;5011582;28;20238;-86
2021/01/22 11:10:17;;;;;;;1.80;1.20;;;10.20;99.90;;;;;;5013111;28;20212;-87
2021/01/22 11:12:43;;;;;;;3.33;0.80;;;10.20;99.90;;;;;;5012280;28;20212;-89
2021/01/22 11:15:10;;;;;;;2.03;0.77;;;10.20;99.90;;;;;;5008492;28;20655;-78
2021/01/22 11:17:37;;;;;;;1.70;1.10;;;10.30;99.90;;;;;;5008748;28;20228;-79
2021/01/22 11:20:04;;;;;;;1.60;0.80;;;10.30;99.90;;;;;;5017422;28;20295;-87
2021/01/22 11:22:30;;;;;;;1.53;0.90;;;10.30;99.90;;;;;;5020359;28;20211;-85
2021/01/22 11:24:57;;;;;;;1.73;0.87;;;10.20;99.90;;;;;;5012759;28;20262;-78
2021/01/22 11:27:24;;;;;;;1.90;1.17;;;10.20;99.90;;;;;;5012938;28;20208;-88
2021/01/22 11:29:51;;;;;;;2.03;1.40;;;10.00;99.90;;;;;;5012156;28;20208;-90
2021/01/22 11:32:17;;;;;;;2.13;1.50;;;10.10;99.90;;;;;;5012504;28;20212;-90
2021/01/22 11:34:44;;;;;;;1.70;1.20;;;10.10;99.90;;;;;;5011480;28;20566;-90
2021/01/22 11:37:10;;;;;;;2.10;1.13;;;10.00;99.90;;;;;;5011804;28;20235;-88
2021/01/22 11:39:37;;;;;;;2.53;1.20;;;10.10;99.90;;;;;;5013629;28;20211;-89
2021/01/22 11:42:05;;;;;;;4.30;1.57;;;10.00;99.90;;;;;;5012849;28;20675;-90
2021/01/22 11:44:32;;;;;;;1.60;0.90;;;9.90;99.90;;;;;;5011176;28;20632;-79
2021/01/22 11:46:59;;;;;;;2.87;0.77;;;9.90;99.90;;;;;;5003850;28;20223;-88
2021/01/22 11:49:26;;;;;;;1.83;1.20;;;9.90;99.90;;;;;;5011912;28;20208;-90
2021/01/22 11:51:53;;;;;;;2.77;1.00;;;9.90;99.90;;;;;;5011579;28;20210;-90
2021/01/22 11:54:19;;;;;;;1.20;0.80;;;9.90;99.90;;;;;;5012595;28;20329;-90
2021/01/22 11:56:47;;;;;;;5.47;3.20;;;9.80;99.90;;;;;;5013287;28;20231;-87
2021/01/22 11:59:13;;;;;;;1.63;1.17;;;9.80;99.90;;;;;;5013095;28;20690;-88
2021/01/22 12:01:41;;;;;;;2.60;0.73;;;9.80;99.90;;;;;;5013531;28;20223;-82
2021/01/22 12:04:07;;;;;;;0.70;0.40;;;9.70;99.90;;;;;;5010836;28;20212;-86
2021/01/22 12:06:34;;;;;;;1.53;1.07;;;9.60;99.90;;;;;;5012866;28;20212;-84
2021/01/22 12:09:00;;;;;;;1.00;0.40;;;9.50;99.90;;;;;;5010791;28;20204;-85
2021/01/22 12:11:28;;;;;;;1.23;0.90;;;9.60;99.90;;;;;;5013029;28;20212;-78
2021/01/22 12:13:55;;;;;;;0.73;0.47;;;9.80;99.90;;;;;;5013135;28;20212;-85
2021/01/22 12:16:21;;;;;;;1.00;0.70;;;9.80;99.90;;;;;;5011610;28;20204;-85
2021/01/22 12:18:49;;;;;;;1.93;0.37;;;9.80;99.90;;;;;;5011284;28;20219;-85
2021/01/22 12:21:15;;;;;;;1.23;0.30;;;9.70;99.90;;;;;;5011305;28;20208;-83
2021/01/22 12:23:42;;;;;;;0.80;0.60;;;9.60;99.90;;;;;;5011294;28;20212;-77
2021/01/22 12:26:09;;;;;;;1.13;0.33;;;9.50;99.90;;;;;;5010525;28;20212;-83
2021/01/22 12:28:36;;;;;;;1.93;0.60;;;9.50;99.90;;;;;;5010503;28;20299;-90
2021/01/22 12:31:04;;;;;;;0.97;0.50;;;9.50;99.90;;;;;;5013143;28;20216;-85
2021/01/22 12:33:30;;;;;;;0.63;0.60;;;9.40;99.90;;;;;;5008174;28;20205;-86
2021/01/22 12:35:58;;;;;;;1.93;0.70;;;9.30;99.90;;;;;;5014503;28;20254;-76
2021/01/22 12:38:24;;;;;;;2.13;0.53;;;9.30;99.90;;;;;;5014417;28;20711;-87
2021/01/22 12:40:52;;;;;;;1.23;0.77;;;9.20;99.90;;;;;;5021404;28;20208;-80
2021/01/22 12:43:18;;;;;;;0.93;0.70;;;9.10;99.90;;;;;;5014688;28;20204;-89
2021/01/22 12:45:45;;;;;;;0.70;0.67;;;9.10;99.90;;;;;;5014371;28;20214;-91
2021/01/22 12:48:12;;;;;;;1.00;0.80;;;9.10;99.90;;;;;;5005430;28;20213;-89
2021/01/22 12:50:39;;;;;;;2.73;0.87;;;9.10;99.90;;;;;;5006612;28;20208;-76